Sparta, Michigan
Current Conditions -  °F | °C
As of 4:53 AM on Sunday 25 Jan 2015 (Local Time) from KGRR Reporting Station
Overcast Overcast  
Wind Chill: 23°   Ceiling: 1900
Heat Index: 31°   Visibility: 10mi
Dew Point: 25°   Wind: 9mph
Humidity: 79%   Direction: 50°NE
Pressure: 29.74"   Gusts: NA
Location:  43.16°N, 85.71°W
Report Text: KGRR 250953Z AUTO 05008KT 10SM OVC019 M01/M04 A2974 RMK AO2 SLP078 T10061039
Loading
Personal Weather Stations






























Interactive Weather Map New forecast layout! Learn more

10-Day Weather Forecast

Advertisements
Track Severe Weather on mobile